sensor_id;sensor_type;location;lat;lon;timestamp;P1;durP1;ratioP1;P2;durP2;ratioP2
12725;SDS011;6427;49.754;6.106;2023-03-14T00:01:43;8.00;;;2.27;;
12725;SDS011;6427;49.754;6.106;2023-03-14T00:04:09;8.40;;;2.27;;
12725;SDS011;6427;49.754;6.106;2023-03-14T00:06:36;9.23;;;1.60;;
12725;SDS011;6427;49.754;6.106;2023-03-14T00:09:05;10.57;;;2.17;;
12725;SDS011;6427;49.754;6.106;2023-03-14T00:11:32;8.27;;;1.67;;
12725;SDS011;6427;49.754;6.106;2023-03-14T00:14:00;9.73;;;2.00;;
12725;SDS011;6427;49.754;6.106;2023-03-14T00:16:27;9.73;;;2.15;;
12725;SDS011;6427;49.754;6.106;2023-03-14T00:18:55;10.73;;;2.00;;
12725;SDS011;6427;49.754;6.106;2023-03-14T00:21:23;10.83;;;2.00;;
12725;SDS011;6427;49.754;6.106;2023-03-14T00:23:50;9.17;;;1.73;;
12725;SDS011;6427;49.754;6.106;2023-03-14T00:26:18;9.10;;;2.10;;
12725;SDS011;6427;49.754;6.106;2023-03-14T00:28:45;9.23;;;1.97;;
12725;SDS011;6427;49.754;6.106;2023-03-14T00:31:13;6.00;;;1.40;;
12725;SDS011;6427;49.754;6.106;2023-03-14T00:33:41;8.83;;;1.53;;
12725;SDS011;6427;49.754;6.106;2023-03-14T00:36:09;8.63;;;2.30;;
12725;SDS011;6427;49.754;6.106;2023-03-14T00:38:36;9.87;;;2.20;;
12725;SDS011;6427;49.754;6.106;2023-03-14T00:41:04;7.70;;;1.33;;
12725;SDS011;6427;49.754;6.106;2023-03-14T00:43:31;10.83;;;2.77;;
12725;SDS011;6427;49.754;6.106;2023-03-14T00:45:59;9.40;;;2.27;;
12725;SDS011;6427;49.754;6.106;2023-03-14T00:48:26;10.70;;;2.07;;
12725;SDS011;6427;49.754;6.106;2023-03-14T00:50:54;11.93;;;2.67;;
12725;SDS011;6427;49.754;6.106;2023-03-14T00:53:22;12.70;;;2.30;;
12725;SDS011;6427;49.754;6.106;2023-03-14T00:55:51;8.37;;;1.90;;
12725;SDS011;6427;49.754;6.106;2023-03-14T00:58:18;10.70;;;2.70;;
12725;SDS011;6427;49.754;6.106;2023-03-14T01:00:46;9.43;;;2.03;;
12725;SDS011;6427;49.754;6.106;2023-03-14T01:03:14;7.57;;;1.90;;
12725;SDS011;6427;49.754;6.106;2023-03-14T01:05:42;14.23;;;2.70;;
12725;SDS011;6427;49.754;6.106;2023-03-14T01:08:09;5.13;;;1.53;;
12725;SDS011;6427;49.754;6.106;2023-03-14T01:10:40;9.50;;;2.10;;
12725;SDS011;6427;49.754;6.106;2023-03-14T01:13:08;15.67;;;2.97;;
12725;SDS011;6427;49.754;6.106;2023-03-14T01:15:36;12.63;;;2.30;;
12725;SDS011;6427;49.754;6.106;2023-03-14T01:18:02;13.93;;;2.40;;
12725;SDS011;6427;49.754;6.106;2023-03-14T01:20:30;11.17;;;2.20;;
12725;SDS011;6427;49.754;6.106;2023-03-14T01:22:58;9.27;;;1.50;;
12725;SDS011;6427;49.754;6.106;2023-03-14T01:25:25;7.77;;;1.87;;
12725;SDS011;6427;49.754;6.106;2023-03-14T01:27:53;12.07;;;2.50;;
12725;SDS011;6427;49.754;6.106;2023-03-14T01:30:20;9.47;;;1.70;;
12725;SDS011;6427;49.754;6.106;2023-03-14T01:32:48;8.67;;;2.03;;
12725;SDS011;6427;49.754;6.106;2023-03-14T01:35:15;12.23;;;2.33;;
12725;SDS011;6427;49.754;6.106;2023-03-14T01:37:43;8.00;;;2.17;;
12725;SDS011;6427;49.754;6.106;2023-03-14T01:40:10;10.13;;;2.30;;
12725;SDS011;6427;49.754;6.106;2023-03-14T01:42:38;8.67;;;2.33;;
12725;SDS011;6427;49.754;6.106;2023-03-14T01:45:53;7.57;;;1.80;;
12725;SDS011;6427;49.754;6.106;2023-03-14T01:47:33;10.07;;;2.30;;
12725;SDS011;6427;49.754;6.106;2023-03-14T01:50:05;11.57;;;1.93;;
12725;SDS011;6427;49.754;6.106;2023-03-14T01:52:31;5.13;;;1.40;;
12725;SDS011;6427;49.754;6.106;2023-03-14T01:55:02;11.23;;;2.23;;
12725;SDS011;6427;49.754;6.106;2023-03-14T01:57:37;8.57;;;1.77;;
12725;SDS011;6427;49.754;6.106;2023-03-14T02:00:05;8.77;;;2.20;;
12725;SDS011;6427;49.754;6.106;2023-03-14T02:02:31;11.10;;;2.95;;
12725;SDS011;6427;49.754;6.106;2023-03-14T02:04:59;12.30;;;2.23;;
12725;SDS011;6427;49.754;6.106;2023-03-14T02:07:37;8.17;;;2.13;;
12725;SDS011;6427;49.754;6.106;2023-03-14T02:10:03;7.90;;;1.83;;
12725;SDS011;6427;49.754;6.106;2023-03-14T02:12:31;6.47;;;2.30;;
12725;SDS011;6427;49.754;6.106;2023-03-14T02:14:59;12.07;;;3.08;;
12725;SDS011;6427;49.754;6.106;2023-03-14T02:17:26;6.57;;;2.00;;
12725;SDS011;6427;49.754;6.106;2023-03-14T02:19:57;8.90;;;2.20;;
12725;SDS011;6427;49.754;6.106;2023-03-14T02:22:24;6.10;;;2.10;;
12725;SDS011;6427;49.754;6.106;2023-03-14T02:25:03;11.10;;;2.13;;
12725;SDS011;6427;49.754;6.106;2023-03-14T02:27:46;6.00;;;1.90;;
12725;SDS011;6427;49.754;6.106;2023-03-14T02:30:18;8.17;;;2.33;;
12725;SDS011;6427;49.754;6.106;2023-03-14T02:32:43;8.87;;;1.80;;
12725;SDS011;6427;49.754;6.106;2023-03-14T02:35:10;10.63;;;2.90;;
12725;SDS011;6427;49.754;6.106;2023-03-14T02:37:44;10.67;;;1.93;;
12725;SDS011;6427;49.754;6.106;2023-03-14T02:40:11;9.70;;;2.23;;
12725;SDS011;6427;49.754;6.106;2023-03-14T02:42:39;7.63;;;2.20;;
12725;SDS011;6427;49.754;6.106;2023-03-14T02:47:38;8.00;;;1.93;;
12725;SDS011;6427;49.754;6.106;2023-03-14T02:50:06;7.43;;;1.73;;
12725;SDS011;6427;49.754;6.106;2023-03-14T02:52:33;5.90;;;1.63;;
12725;SDS011;6427;49.754;6.106;2023-03-14T02:55:00;7.40;;;1.73;;
12725;SDS011;6427;49.754;6.106;2023-03-14T02:57:28;6.13;;;1.60;;
12725;SDS011;6427;49.754;6.106;2023-03-14T02:59:59;3.03;;;1.33;;
12725;SDS011;6427;49.754;6.106;2023-03-14T03:02:29;5.07;;;1.40;;
12725;SDS011;6427;49.754;6.106;2023-03-14T03:04:56;2.30;;;1.00;;
12725;SDS011;6427;49.754;6.106;2023-03-14T03:07:24;6.60;;;1.30;;
12725;SDS011;6427;49.754;6.106;2023-03-14T03:09:52;6.67;;;1.10;;
12725;SDS011;6427;49.754;6.106;2023-03-14T03:12:20;4.50;;;0.73;;
12725;SDS011;6427;49.754;6.106;2023-03-14T03:14:47;3.07;;;1.20;;
12725;SDS011;6427;49.754;6.106;2023-03-14T03:17:15;2.33;;;1.13;;
12725;SDS011;6427;49.754;6.106;2023-03-14T03:19:42;4.23;;;1.40;;
12725;SDS011;6427;49.754;6.106;2023-03-14T03:22:10;3.53;;;1.60;;
12725;SDS011;6427;49.754;6.106;2023-03-14T03:24:37;3.47;;;1.47;;
12725;SDS011;6427;49.754;6.106;2023-03-14T03:27:05;3.23;;;1.37;;
12725;SDS011;6427;49.754;6.106;2023-03-14T03:29:32;3.27;;;0.97;;
12725;SDS011;6427;49.754;6.106;2023-03-14T03:32:01;0.83;;;0.80;;
12725;SDS011;6427;49.754;6.106;2023-03-14T03:34:28;1.70;;;1.00;;
12725;SDS011;6427;49.754;6.106;2023-03-14T03:36:56;3.10;;;0.80;;
12725;SDS011;6427;49.754;6.106;2023-03-14T03:39:24;1.83;;;1.07;;
12725;SDS011;6427;49.754;6.106;2023-03-14T03:41:52;4.00;;;0.93;;
12725;SDS011;6427;49.754;6.106;2023-03-14T03:44:20;4.53;;;1.40;;
12725;SDS011;6427;49.754;6.106;2023-03-14T03:46:48;4.27;;;1.17;;
12725;SDS011;6427;49.754;6.106;2023-03-14T03:49:16;2.10;;;0.87;;
12725;SDS011;6427;49.754;6.106;2023-03-14T03:51:44;1.73;;;0.90;;
12725;SDS011;6427;49.754;6.106;2023-03-14T03:54:11;2.90;;;0.60;;
12725;SDS011;6427;49.754;6.106;2023-03-14T03:56:39;3.00;;;0.60;;
12725;SDS011;6427;49.754;6.106;2023-03-14T03:59:07;0.87;;;0.40;;
12725;SDS011;6427;49.754;6.106;2023-03-14T04:01:35;2.33;;;0.50;;
12725;SDS011;6427;49.754;6.106;2023-03-14T04:04:03;1.07;;;0.30;;
12725;SDS011;6427;49.754;6.106;2023-03-14T04:06:31;0.87;;;0.20;;
12725;SDS011;6427;49.754;6.106;2023-03-14T04:08:58;1.33;;;0.50;;
12725;SDS011;6427;49.754;6.106;2023-03-14T04:11:27;1.10;;;0.40;;
12725;SDS011;6427;49.754;6.106;2023-03-14T04:13:55;3.03;;;0.50;;
12725;SDS011;6427;49.754;6.106;2023-03-14T04:16:23;0.83;;;0.30;;
12725;SDS011;6427;49.754;6.106;2023-03-14T04:18:50;1.73;;;0.40;;
12725;SDS011;6427;49.754;6.106;2023-03-14T04:21:18;0.90;;;0.57;;
12725;SDS011;6427;49.754;6.106;2023-03-14T04:23:46;1.07;;;0.40;;
12725;SDS011;6427;49.754;6.106;2023-03-14T04:26:14;1.27;;;0.50;;
12725;SDS011;6427;49.754;6.106;2023-03-14T04:28:41;2.50;;;0.47;;
12725;SDS011;6427;49.754;6.106;2023-03-14T04:31:09;2.23;;;0.40;;
12725;SDS011;6427;49.754;6.106;2023-03-14T04:33:37;1.77;;;0.50;;
12725;SDS011;6427;49.754;6.106;2023-03-14T04:36:05;1.33;;;0.90;;
12725;SDS011;6427;49.754;6.106;2023-03-14T04:38:32;1.17;;;0.30;;
12725;SDS011;6427;49.754;6.106;2023-03-14T04:41:00;2.53;;;0.60;;
12725;SDS011;6427;49.754;6.106;2023-03-14T04:43:27;2.10;;;0.57;;
12725;SDS011;6427;49.754;6.106;2023-03-14T04:45:57;2.67;;;0.63;;
12725;SDS011;6427;49.754;6.106;2023-03-14T04:48:24;4.20;;;0.80;;
12725;SDS011;6427;49.754;6.106;2023-03-14T04:50:51;3.40;;;0.50;;
12725;SDS011;6427;49.754;6.106;2023-03-14T04:53:18;2.47;;;0.40;;
12725;SDS011;6427;49.754;6.106;2023-03-14T04:55:49;2.00;;;0.70;;
12725;SDS011;6427;49.754;6.106;2023-03-14T04:58:17;2.17;;;0.50;;
12725;SDS011;6427;49.754;6.106;2023-03-14T05:00:44;2.10;;;0.50;;
12725;SDS011;6427;49.754;6.106;2023-03-14T05:03:12;3.67;;;0.90;;
12725;SDS011;6427;49.754;6.106;2023-03-14T05:05:39;5.70;;;1.03;;
12725;SDS011;6427;49.754;6.106;2023-03-14T05:08:07;3.97;;;0.57;;
12725;SDS011;6427;49.754;6.106;2023-03-14T05:10:34;1.00;;;0.50;;
12725;SDS011;6427;49.754;6.106;2023-03-14T05:13:02;2.87;;;0.50;;
12725;SDS011;6427;49.754;6.106;2023-03-14T05:15:29;2.00;;;0.63;;
12725;SDS011;6427;49.754;6.106;2023-03-14T05:17:57;2.47;;;0.80;;
12725;SDS011;6427;49.754;6.106;2023-03-14T05:20:24;4.25;;;1.00;;
12725;SDS011;6427;49.754;6.106;2023-03-14T05:22:52;2.63;;;0.70;;
12725;SDS011;6427;49.754;6.106;2023-03-14T05:25:20;3.80;;;1.23;;
12725;SDS011;6427;49.754;6.106;2023-03-14T05:27:47;2.43;;;1.17;;
12725;SDS011;6427;49.754;6.106;2023-03-14T05:30:15;2.90;;;0.80;;
12725;SDS011;6427;49.754;6.106;2023-03-14T05:32:42;4.13;;;1.00;;
12725;SDS011;6427;49.754;6.106;2023-03-14T05:35:11;3.57;;;1.23;;
12725;SDS011;6427;49.754;6.106;2023-03-14T05:37:38;4.40;;;1.27;;
12725;SDS011;6427;49.754;6.106;2023-03-14T05:40:07;2.57;;;0.97;;
12725;SDS011;6427;49.754;6.106;2023-03-14T05:42:35;3.50;;;0.97;;
12725;SDS011;6427;49.754;6.106;2023-03-14T05:45:03;6.73;;;1.17;;
12725;SDS011;6427;49.754;6.106;2023-03-14T05:47:30;3.33;;;0.97;;
12725;SDS011;6427;49.754;6.106;2023-03-14T05:49:58;1.47;;;0.77;;
12725;SDS011;6427;49.754;6.106;2023-03-14T05:52:26;4.85;;;1.08;;
12725;SDS011;6427;49.754;6.106;2023-03-14T05:54:58;1.97;;;0.60;;
12725;SDS011;6427;49.754;6.106;2023-03-14T05:57:26;2.83;;;0.90;;
12725;SDS011;6427;49.754;6.106;2023-03-14T05:59:53;4.55;;;0.82;;
12725;SDS011;6427;49.754;6.106;2023-03-14T06:02:21;0.70;;;0.40;;
12725;SDS011;6427;49.754;6.106;2023-03-14T06:04:50;1.93;;;0.50;;
12725;SDS011;6427;49.754;6.106;2023-03-14T06:07:17;1.97;;;0.60;;
12725;SDS011;6427;49.754;6.106;2023-03-14T06:09:45;1.73;;;0.50;;
12725;SDS011;6427;49.754;6.106;2023-03-14T06:12:13;3.27;;;0.70;;
12725;SDS011;6427;49.754;6.106;2023-03-14T06:14:41;0.77;;;0.30;;
12725;SDS011;6427;49.754;6.106;2023-03-14T06:17:09;2.43;;;0.67;;
12725;SDS011;6427;49.754;6.106;2023-03-14T06:19:38;3.40;;;0.40;;
12725;SDS011;6427;49.754;6.106;2023-03-14T06:22:06;1.70;;;0.20;;
12725;SDS011;6427;49.754;6.106;2023-03-14T06:24:33;1.83;;;0.40;;
12725;SDS011;6427;49.754;6.106;2023-03-14T06:27:01;1.17;;;0.27;;
12725;SDS011;6427;49.754;6.106;2023-03-14T06:29:29;2.13;;;0.53;;
12725;SDS011;6427;49.754;6.106;2023-03-14T06:31:56;0.43;;;0.20;;
12725;SDS011;6427;49.754;6.106;2023-03-14T06:34:24;3.20;;;0.40;;
12725;SDS011;6427;49.754;6.106;2023-03-14T06:36:52;2.23;;;0.27;;
12725;SDS011;6427;49.754;6.106;2023-03-14T06:39:19;0.30;;;0.10;;
12725;SDS011;6427;49.754;6.106;2023-03-14T06:41:47;1.27;;;0.20;;
12725;SDS011;6427;49.754;6.106;2023-03-14T06:44:15;1.47;;;0.30;;
12725;SDS011;6427;49.754;6.106;2023-03-14T06:46:42;0.97;;;0.30;;
12725;SDS011;6427;49.754;6.106;2023-03-14T06:49:10;0.20;;;0.20;;
12725;SDS011;6427;49.754;6.106;2023-03-14T06:51:38;0.50;;;0.20;;
12725;SDS011;6427;49.754;6.106;2023-03-14T06:54:05;2.10;;;0.30;;
12725;SDS011;6427;49.754;6.106;2023-03-14T06:56:33;1.57;;;0.20;;
12725;SDS011;6427;49.754;6.106;2023-03-14T06:59:01;0.80;;;0.20;;
12725;SDS011;6427;49.754;6.106;2023-03-14T07:01:30;0.80;;;0.23;;
12725;SDS011;6427;49.754;6.106;2023-03-14T07:03:57;1.27;;;0.30;;
12725;SDS011;6427;49.754;6.106;2023-03-14T07:06:25;0.67;;;0.30;;
12725;SDS011;6427;49.754;6.106;2023-03-14T07:08:52;1.23;;;0.40;;
12725;SDS011;6427;49.754;6.106;2023-03-14T07:11:20;0.80;;;0.30;;
12725;SDS011;6427;49.754;6.106;2023-03-14T07:13:48;2.97;;;0.43;;
12725;SDS011;6427;49.754;6.106;2023-03-14T07:16:16;1.73;;;0.30;;
12725;SDS011;6427;49.754;6.106;2023-03-14T07:18:44;0.60;;;0.30;;
12725;SDS011;6427;49.754;6.106;2023-03-14T07:21:12;3.00;;;0.33;;
12725;SDS011;6427;49.754;6.106;2023-03-14T07:23:40;1.27;;;0.30;;
12725;SDS011;6427;49.754;6.106;2023-03-14T07:26:08;1.07;;;0.20;;
12725;SDS011;6427;49.754;6.106;2023-03-14T07:28:35;1.23;;;0.32;;
12725;SDS011;6427;49.754;6.106;2023-03-14T07:31:03;0.97;;;0.30;;
12725;SDS011;6427;49.754;6.106;2023-03-14T07:33:30;3.07;;;0.37;;
12725;SDS011;6427;49.754;6.106;2023-03-14T07:35:58;1.07;;;0.33;;
12725;SDS011;6427;49.754;6.106;2023-03-14T07:38:26;0.30;;;0.17;;
12725;SDS011;6427;49.754;6.106;2023-03-14T07:41:00;0.40;;;0.20;;
12725;SDS011;6427;49.754;6.106;2023-03-14T07:43:27;1.20;;;0.30;;
12725;SDS011;6427;49.754;6.106;2023-03-14T07:45:55;0.33;;;0.20;;
12725;SDS011;6427;49.754;6.106;2023-03-14T07:48:23;2.93;;;0.40;;
12725;SDS011;6427;49.754;6.106;2023-03-14T07:50:51;0.50;;;0.30;;
12725;SDS011;6427;49.754;6.106;2023-03-14T07:53:19;0.93;;;0.10;;
12725;SDS011;6427;49.754;6.106;2023-03-14T07:55:46;2.97;;;0.23;;
12725;SDS011;6427;49.754;6.106;2023-03-14T07:58:14;0.20;;;0.20;;
12725;SDS011;6427;49.754;6.106;2023-03-14T08:00:42;2.00;;;0.40;;
12725;SDS011;6427;49.754;6.106;2023-03-14T08:03:10;0.53;;;0.20;;
12725;SDS011;6427;49.754;6.106;2023-03-14T08:05:37;0.67;;;0.20;;
12725;SDS011;6427;49.754;6.106;2023-03-14T08:08:05;1.55;;;0.30;;
12725;SDS011;6427;49.754;6.106;2023-03-14T08:10:33;0.40;;;0.10;;
12725;SDS011;6427;49.754;6.106;2023-03-14T08:13:00;2.10;;;0.33;;
12725;SDS011;6427;49.754;6.106;2023-03-14T08:15:29;1.17;;;0.20;;
12725;SDS011;6427;49.754;6.106;2023-03-14T08:17:55;0.10;;;0.10;;
12725;SDS011;6427;49.754;6.106;2023-03-14T08:20:24;0.80;;;0.10;;
12725;SDS011;6427;49.754;6.106;2023-03-14T08:22:50;3.37;;;0.47;;
12725;SDS011;6427;49.754;6.106;2023-03-14T08:25:19;0.73;;;0.30;;
12725;SDS011;6427;49.754;6.106;2023-03-14T08:27:47;0.47;;;0.30;;
12725;SDS011;6427;49.754;6.106;2023-03-14T08:30:15;2.93;;;0.67;;
12725;SDS011;6427;49.754;6.106;2023-03-14T08:32:42;1.10;;;0.40;;
12725;SDS011;6427;49.754;6.106;2023-03-14T08:35:10;1.83;;;0.57;;
12725;SDS011;6427;49.754;6.106;2023-03-14T08:37:37;0.80;;;0.23;;
12725;SDS011;6427;49.754;6.106;2023-03-14T08:40:05;0.20;;;0.20;;
12725;SDS011;6427;49.754;6.106;2023-03-14T08:42:38;0.27;;;0.20;;
12725;SDS011;6427;49.754;6.106;2023-03-14T08:45:05;0.10;;;0.10;;
12725;SDS011;6427;49.754;6.106;2023-03-14T08:47:33;0.50;;;0.17;;
12725;SDS011;6427;49.754;6.106;2023-03-14T08:50:02;0.20;;;0.10;;
12725;SDS011;6427;49.754;6.106;2023-03-14T08:52:29;0.83;;;0.10;;
12725;SDS011;6427;49.754;6.106;2023-03-14T08:54:56;0.40;;;0.10;;
12725;SDS011;6427;49.754;6.106;2023-03-14T08:57:25;0.47;;;0.00;;
12725;SDS011;6427;49.754;6.106;2023-03-14T08:59:56;1.10;;;0.10;;
12725;SDS011;6427;49.754;6.106;2023-03-14T09:02:24;1.53;;;0.20;;
12725;SDS011;6427;49.754;6.106;2023-03-14T09:04:52;0.00;;;0.00;;
12725;SDS011;6427;49.754;6.106;2023-03-14T09:07:19;0.30;;;0.20;;
12725;SDS011;6427;49.754;6.106;2023-03-14T09:09:47;0.43;;;0.20;;
12725;SDS011;6427;49.754;6.106;2023-03-14T09:12:15;0.37;;;0.20;;
12725;SDS011;6427;49.754;6.106;2023-03-14T09:14:43;0.63;;;0.10;;
12725;SDS011;6427;49.754;6.106;2023-03-14T09:17:11;0.30;;;0.10;;
12725;SDS011;6427;49.754;6.106;2023-03-14T09:19:39;0.10;;;0.10;;
12725;SDS011;6427;49.754;6.106;2023-03-14T09:22:06;0.37;;;0.17;;
12725;SDS011;6427;49.754;6.106;2023-03-14T09:24:34;0.20;;;0.20;;
12725;SDS011;6427;49.754;6.106;2023-03-14T09:27:01;0.10;;;0.10;;
12725;SDS011;6427;49.754;6.106;2023-03-14T09:29:29;0.10;;;0.10;;
12725;SDS011;6427;49.754;6.106;2023-03-14T09:31:57;0.20;;;0.20;;
12725;SDS011;6427;49.754;6.106;2023-03-14T09:34:24;0.20;;;0.20;;
12725;SDS011;6427;49.754;6.106;2023-03-14T09:36:52;0.03;;;0.03;;
12725;SDS011;6427;49.754;6.106;2023-03-14T09:39:20;0.10;;;0.10;;
12725;SDS011;6427;49.754;6.106;2023-03-14T09:41:48;0.53;;;0.20;;
12725;SDS011;6427;49.754;6.106;2023-03-14T09:44:22;0.40;;;0.20;;
12725;SDS011;6427;49.754;6.106;2023-03-14T09:46:50;0.10;;;0.10;;
12725;SDS011;6427;49.754;6.106;2023-03-14T09:49:24;0.97;;;0.30;;
12725;SDS011;6427;49.754;6.106;2023-03-14T09:51:53;0.60;;;0.20;;
12725;SDS011;6427;49.754;6.106;2023-03-14T09:54:30;0.60;;;0.20;;
12725;SDS011;6427;49.754;6.106;2023-03-14T09:57:05;1.12;;;0.40;;
12725;SDS011;6427;49.754;6.106;2023-03-14T09:59:33;0.30;;;0.30;;
12725;SDS011;6427;49.754;6.106;2023-03-14T10:04:37;0.30;;;0.30;;
12725;SDS011;6427;49.754;6.106;2023-03-14T10:07:05;0.40;;;0.30;;
12725;SDS011;6427;49.754;6.106;2023-03-14T10:09:32;1.05;;;0.50;;
12725;SDS011;6427;49.754;6.106;2023-03-14T10:12:00;0.57;;;0.57;;
12725;SDS011;6427;49.754;6.106;2023-03-14T10:14:31;0.93;;;0.60;;
12725;SDS011;6427;49.754;6.106;2023-03-14T10:17:10;2.10;;;0.50;;
12725;SDS011;6427;49.754;6.106;2023-03-14T10:19:37;1.75;;;1.12;;
12725;SDS011;6427;49.754;6.106;2023-03-14T10:22:04;3.43;;;1.00;;
12725;SDS011;6427;49.754;6.106;2023-03-14T10:24:33;2.80;;;1.20;;
12725;SDS011;6427;49.754;6.106;2023-03-14T10:27:01;4.43;;;1.80;;
12725;SDS011;6427;49.754;6.106;2023-03-14T10:29:30;3.33;;;2.17;;
12725;SDS011;6427;49.754;6.106;2023-03-14T10:32:01;2.33;;;1.80;;
12725;SDS011;6427;49.754;6.106;2023-03-14T10:34:29;4.90;;;1.80;;
12725;SDS011;6427;49.754;6.106;2023-03-14T10:36:56;4.27;;;1.93;;
12725;SDS011;6427;49.754;6.106;2023-03-14T10:39:24;2.57;;;1.60;;
12725;SDS011;6427;49.754;6.106;2023-03-14T10:42:16;3.33;;;1.70;;
12725;SDS011;6427;49.754;6.106;2023-03-14T10:44:42;2.47;;;1.17;;
12725;SDS011;6427;49.754;6.106;2023-03-14T10:47:15;2.77;;;1.20;;
12725;SDS011;6427;49.754;6.106;2023-03-14T10:49:38;2.53;;;1.20;;
12725;SDS011;6427;49.754;6.106;2023-03-14T10:54:36;2.42;;;0.90;;
12725;SDS011;6427;49.754;6.106;2023-03-14T10:57:04;2.00;;;0.80;;
12725;SDS011;6427;49.754;6.106;2023-03-14T10:59:37;2.40;;;1.53;;
12725;SDS011;6427;49.754;6.106;2023-03-14T11:07:50;4.47;;;1.53;;
12725;SDS011;6427;49.754;6.106;2023-03-14T11:10:19;2.70;;;1.57;;
12725;SDS011;6427;49.754;6.106;2023-03-14T11:26:47;3.07;;;1.50;;
12725;SDS011;6427;49.754;6.106;2023-03-14T11:29:38;3.17;;;0.60;;
12725;SDS011;6427;49.754;6.106;2023-03-14T11:32:11;2.20;;;1.27;;
12725;SDS011;6427;49.754;6.106;2023-03-14T11:34:42;2.30;;;1.00;;
12725;SDS011;6427;49.754;6.106;2023-03-14T11:37:07;3.15;;;0.82;;
12725;SDS011;6427;49.754;6.106;2023-03-14T11:39:40;1.90;;;0.60;;
12725;SDS011;6427;49.754;6.106;2023-03-14T11:42:10;1.20;;;0.53;;
12725;SDS011;6427;49.754;6.106;2023-03-14T11:44:38;1.00;;;0.50;;
12725;SDS011;6427;49.754;6.106;2023-03-14T11:47:08;0.77;;;0.47;;
12725;SDS011;6427;49.754;6.106;2023-03-14T11:49:47;3.73;;;0.53;;
12725;SDS011;6427;49.754;6.106;2023-03-14T11:52:25;2.00;;;0.60;;
12725;SDS011;6427;49.754;6.106;2023-03-14T11:55:07;1.17;;;0.40;;
12725;SDS011;6427;49.754;6.106;2023-03-14T11:57:48;1.80;;;1.00;;
12725;SDS011;6427;49.754;6.106;2023-03-14T12:05:50;1.70;;;0.30;;
12725;SDS011;6427;49.754;6.106;2023-03-14T12:13:38;2.60;;;0.40;;
12725;SDS011;6427;49.754;6.106;2023-03-14T12:16:52;0.80;;;0.40;;
12725;SDS011;6427;49.754;6.106;2023-03-14T12:18:34;2.40;;;0.43;;
12725;SDS011;6427;49.754;6.106;2023-03-14T12:21:02;0.43;;;0.30;;
12725;SDS011;6427;49.754;6.106;2023-03-14T12:23:34;1.27;;;0.43;;
12725;SDS011;6427;49.754;6.106;2023-03-14T12:28:39;1.20;;;0.40;;
12725;SDS011;6427;49.754;6.106;2023-03-14T12:39:27;2.50;;;0.40;;
12725;SDS011;6427;49.754;6.106;2023-03-14T12:42:04;0.90;;;0.40;;
12725;SDS011;6427;49.754;6.106;2023-03-14T12:49:45;3.50;;;1.00;;
12725;SDS011;6427;49.754;6.106;2023-03-14T12:52:13;3.53;;;1.73;;
12725;SDS011;6427;49.754;6.106;2023-03-14T12:55:00;3.40;;;0.60;;
12725;SDS011;6427;49.754;6.106;2023-03-14T12:57:33;3.10;;;0.70;;
12725;SDS011;6427;49.754;6.106;2023-03-14T12:59:59;2.27;;;0.77;;
12725;SDS011;6427;49.754;6.106;2023-03-14T13:02:38;4.37;;;1.43;;
12725;SDS011;6427;49.754;6.106;2023-03-14T13:05:14;5.63;;;2.37;;
12725;SDS011;6427;49.754;6.106;2023-03-14T13:10:27;5.77;;;2.10;;
12725;SDS011;6427;49.754;6.106;2023-03-14T13:12:57;4.90;;;1.10;;
12725;SDS011;6427;49.754;6.106;2023-03-14T13:15:41;2.33;;;0.80;;
12725;SDS011;6427;49.754;6.106;2023-03-14T13:18:14;1.20;;;0.40;;
12725;SDS011;6427;49.754;6.106;2023-03-14T13:20:51;2.07;;;0.70;;
12725;SDS011;6427;49.754;6.106;2023-03-14T13:23:26;2.60;;;0.60;;
12725;SDS011;6427;49.754;6.106;2023-03-14T13:25:48;4.23;;;0.80;;
12725;SDS011;6427;49.754;6.106;2023-03-14T13:28:15;2.97;;;0.70;;
12725;SDS011;6427;49.754;6.106;2023-03-14T13:30:44;4.27;;;0.60;;
12725;SDS011;6427;49.754;6.106;2023-03-14T13:33:12;4.30;;;0.90;;
12725;SDS011;6427;49.754;6.106;2023-03-14T13:35:42;3.53;;;0.83;;
12725;SDS011;6427;49.754;6.106;2023-03-14T13:38:18;2.83;;;0.70;;
12725;SDS011;6427;49.754;6.106;2023-03-14T13:40:48;1.50;;;0.60;;
12725;SDS011;6427;49.754;6.106;2023-03-14T13:43:20;0.90;;;0.40;;
12725;SDS011;6427;49.754;6.106;2023-03-14T13:45:49;3.60;;;0.60;;
12725;SDS011;6427;49.754;6.106;2023-03-14T13:48:16;1.90;;;0.50;;
12725;SDS011;6427;49.754;6.106;2023-03-14T13:50:51;1.10;;;0.30;;
12725;SDS011;6427;49.754;6.106;2023-03-14T13:53:17;5.47;;;0.70;;
12725;SDS011;6427;49.754;6.106;2023-03-14T13:55:46;2.47;;;0.87;;
12725;SDS011;6427;49.754;6.106;2023-03-14T13:58:24;2.17;;;0.67;;
12725;SDS011;6427;49.754;6.106;2023-03-14T14:03:33;2.77;;;0.60;;
12725;SDS011;6427;49.754;6.106;2023-03-14T14:06:00;1.80;;;0.80;;
12725;SDS011;6427;49.754;6.106;2023-03-14T14:08:27;3.47;;;0.70;;
12725;SDS011;6427;49.754;6.106;2023-03-14T14:10:58;2.10;;;0.50;;
12725;SDS011;6427;49.754;6.106;2023-03-14T14:13:22;4.70;;;0.47;;
12725;SDS011;6427;49.754;6.106;2023-03-14T14:15:51;2.27;;;0.47;;
12725;SDS011;6427;49.754;6.106;2023-03-14T14:18:18;4.40;;;0.60;;
12725;SDS011;6427;49.754;6.106;2023-03-14T14:20:46;6.60;;;0.80;;
12725;SDS011;6427;49.754;6.106;2023-03-14T14:23:17;3.40;;;0.80;;
12725;SDS011;6427;49.754;6.106;2023-03-14T14:25:48;4.07;;;0.77;;
12725;SDS011;6427;49.754;6.106;2023-03-14T14:28:37;1.87;;;0.60;;
12725;SDS011;6427;49.754;6.106;2023-03-14T14:30:42;2.73;;;0.40;;
12725;SDS011;6427;49.754;6.106;2023-03-14T14:33:18;4.17;;;0.80;;
12725;SDS011;6427;49.754;6.106;2023-03-14T14:35:56;3.60;;;1.10;;
12725;SDS011;6427;49.754;6.106;2023-03-14T14:38:17;2.17;;;0.77;;
12725;SDS011;6427;49.754;6.106;2023-03-14T14:40:46;2.33;;;0.90;;
12725;SDS011;6427;49.754;6.106;2023-03-14T14:43:21;6.13;;;0.80;;
12725;SDS011;6427;49.754;6.106;2023-03-14T14:45:47;2.30;;;0.73;;
12725;SDS011;6427;49.754;6.106;2023-03-14T14:48:15;2.67;;;0.33;;
12725;SDS011;6427;49.754;6.106;2023-03-14T14:50:49;2.37;;;0.70;;
12725;SDS011;6427;49.754;6.106;2023-03-14T14:55:49;0.50;;;0.30;;
12725;SDS011;6427;49.754;6.106;2023-03-14T15:00:58;2.25;;;0.60;;
12725;SDS011;6427;49.754;6.106;2023-03-14T15:03:25;2.93;;;0.60;;
12725;SDS011;6427;49.754;6.106;2023-03-14T15:05:55;4.28;;;1.50;;
12725;SDS011;6427;49.754;6.106;2023-03-14T15:08:23;4.53;;;1.00;;
12725;SDS011;6427;49.754;6.106;2023-03-14T15:10:50;4.10;;;0.70;;
12725;SDS011;6427;49.754;6.106;2023-03-14T15:13:18;4.80;;;0.60;;
12725;SDS011;6427;49.754;6.106;2023-03-14T15:15:46;3.00;;;0.70;;
12725;SDS011;6427;49.754;6.106;2023-03-14T15:18:15;2.30;;;0.93;;
12725;SDS011;6427;49.754;6.106;2023-03-14T15:20:42;4.67;;;0.80;;
12725;SDS011;6427;49.754;6.106;2023-03-14T15:23:12;2.00;;;0.73;;
12725;SDS011;6427;49.754;6.106;2023-03-14T15:25:40;0.50;;;0.23;;
12725;SDS011;6427;49.754;6.106;2023-03-14T15:28:12;3.13;;;0.50;;
12725;SDS011;6427;49.754;6.106;2023-03-14T15:30:47;2.20;;;0.47;;
12725;SDS011;6427;49.754;6.106;2023-03-14T15:33:14;1.70;;;0.43;;
12725;SDS011;6427;49.754;6.106;2023-03-14T15:35:41;1.43;;;0.30;;
12725;SDS011;6427;49.754;6.106;2023-03-14T15:38:10;1.80;;;0.50;;
12725;SDS011;6427;49.754;6.106;2023-03-14T15:40:40;1.97;;;0.40;;
12725;SDS011;6427;49.754;6.106;2023-03-14T15:43:08;3.03;;;0.60;;
12725;SDS011;6427;49.754;6.106;2023-03-14T15:45:36;1.73;;;0.37;;
12725;SDS011;6427;49.754;6.106;2023-03-14T15:48:04;2.83;;;0.50;;
12725;SDS011;6427;49.754;6.106;2023-03-14T15:50:31;1.47;;;0.83;;
12725;SDS011;6427;49.754;6.106;2023-03-14T15:52:59;2.33;;;0.80;;
12725;SDS011;6427;49.754;6.106;2023-03-14T15:55:27;2.37;;;0.40;;
12725;SDS011;6427;49.754;6.106;2023-03-14T15:57:54;1.30;;;0.60;;
12725;SDS011;6427;49.754;6.106;2023-03-14T16:00:22;4.00;;;0.80;;
12725;SDS011;6427;49.754;6.106;2023-03-14T16:02:50;3.00;;;0.40;;
12725;SDS011;6427;49.754;6.106;2023-03-14T16:05:18;4.63;;;0.87;;
12725;SDS011;6427;49.754;6.106;2023-03-14T16:07:48;6.00;;;1.40;;
12725;SDS011;6427;49.754;6.106;2023-03-14T16:10:16;1.90;;;0.90;;
12725;SDS011;6427;49.754;6.106;2023-03-14T16:12:43;4.40;;;1.10;;
12725;SDS011;6427;49.754;6.106;2023-03-14T16:15:11;5.23;;;1.63;;